Time;durP1;ratioP1;P1;durP2;ratioP2;P2;SDS_P1;SDS_P2;PMS_P1;PMS_P2;Temp;Humidity;BMP_temperature;BMP_pressure;BME280_temperature;BME280_humidity;BME280_pressure;Samples;Min_cycle;Max_cycle;Signal;HPM_P1;HPM_P2
2020/12/23 00:01:39;;;;;;;1.50;0.90;;;24.30;46.90;;;;;;5180595;28;20164;-82
2020/12/23 00:04:10;;;;;;;1.58;0.70;;;24.20;47.00;;;;;;5194364;28;20526;-81
2020/12/23 00:06:40;;;;;;;1.58;0.70;;;24.30;47.00;;;;;;5169774;28;20038;-82
2020/12/23 00:09:11;;;;;;;2.58;0.65;;;24.20;47.10;;;;;;5176969;28;20121;-82
2020/12/23 00:11:41;;;;;;;1.38;0.70;;;24.20;47.10;;;;;;5194133;28;20045;-84
2020/12/23 00:14:12;;;;;;;1.70;1.00;;;24.20;47.10;;;;;;5186913;28;20031;-83
2020/12/23 00:16:42;;;;;;;1.55;0.63;;;24.30;47.20;;;;;;5183833;28;20077;-82
2020/12/23 00:19:13;;;;;;;2.25;0.55;;;24.20;47.20;;;;;;5177229;28;20599;-82
2020/12/23 00:21:43;;;;;;;1.88;0.70;;;24.30;47.30;;;;;;5191500;28;20030;-83
2020/12/23 00:24:14;;;;;;;0.82;0.60;;;24.20;47.30;;;;;;5193585;28;20448;-83
2020/12/23 00:26:45;;;;;;;1.38;0.68;;;24.10;47.60;;;;;;5172072;28;20022;-83
2020/12/23 00:29:15;;;;;;;0.90;0.60;;;24.10;47.60;;;;;;5180216;28;20029;-82
2020/12/23 00:31:46;;;;;;;1.10;0.60;;;24.10;47.70;;;;;;5172870;28;20029;-83
2020/12/23 00:34:16;;;;;;;2.90;0.68;;;24.20;47.70;;;;;;5206114;28;20080;-83
2020/12/23 00:36:57;;;;;;;5.78;0.80;;;24.10;47.90;;;;;;5183120;28;20022;-85
2020/12/23 00:39:28;;;;;;;0.70;0.60;;;24.20;47.80;;;;;;5170418;28;20038;-83
2020/12/23 00:41:58;;;;;;;1.60;0.60;;;24.10;48.00;;;;;;5189635;28;20590;-84
2020/12/23 00:44:29;;;;;;;1.85;0.65;;;24.20;48.20;;;;;;5181618;28;20022;-85
2020/12/23 00:46:59;;;;;;;3.08;0.55;;;24.30;48.30;;;;;;5182117;28;20026;-87
2020/12/23 00:49:30;;;;;;;0.88;0.47;;;24.20;48.30;;;;;;5198729;28;20033;-84
2020/12/23 00:52:00;;;;;;;6.32;0.70;;;24.20;48.30;;;;;;5180871;28;20030;-82
2020/12/23 00:54:31;;;;;;;0.98;0.50;;;24.20;48.10;;;;;;5193234;28;20411;-83
2020/12/23 00:57:02;;;;;;;0.57;0.50;;;24.20;48.20;;;;;;5163799;28;20424;-81
2020/12/23 00:59:33;;;;;;;0.70;0.45;;;24.20;48.10;;;;;;5152849;28;20040;-81
2020/12/23 01:02:04;;;;;;;1.10;0.50;;;24.20;48.20;;;;;;5171806;28;20042;-81
2020/12/23 01:04:34;;;;;;;1.30;0.63;;;24.20;48.20;;;;;;5171429;28;20018;-82
2020/12/23 01:07:04;;;;;;;1.02;0.60;;;24.10;48.30;;;;;;5193149;28;20038;-85
2020/12/23 01:09:35;;;;;;;0.95;0.55;;;24.20;48.40;;;;;;5176107;28;20026;-83
2020/12/23 01:12:05;;;;;;;0.70;0.60;;;24.30;48.30;;;;;;5176456;28;20041;-83
2020/12/23 01:14:36;;;;;;;1.98;0.70;;;24.30;48.10;;;;;;5177656;28;20373;-82
2020/12/23 01:17:06;;;;;;;1.50;0.50;;;24.30;48.10;;;;;;5186020;28;20030;-82
2020/12/23 01:19:37;;;;;;;1.05;0.63;;;24.30;48.30;;;;;;5194412;28;20041;-84
2020/12/23 01:22:07;;;;;;;1.60;0.60;;;24.20;48.60;;;;;;5175729;28;20034;-84
2020/12/23 01:24:38;;;;;;;1.25;0.70;;;24.30;48.60;;;;;;5177028;28;20030;-84
2020/12/23 01:27:08;;;;;;;0.90;0.50;;;24.40;48.30;;;;;;5176614;28;20044;-82
2020/12/23 01:29:39;;;;;;;1.75;0.70;;;24.30;48.60;;;;;;5193962;28;20025;-82
2020/12/23 01:32:09;;;;;;;2.10;0.70;;;24.30;48.50;;;;;;5208866;28;20029;-81
2020/12/23 01:34:40;;;;;;;1.15;0.60;;;24.30;48.70;;;;;;5167912;28;20038;-82
2020/12/23 01:37:10;;;;;;;1.05;0.70;;;24.30;48.70;;;;;;5157590;28;20041;-83
2020/12/23 01:39:41;;;;;;;1.80;0.60;;;24.30;48.70;;;;;;5186416;28;20029;-84
2020/12/23 01:42:12;;;;;;;1.00;0.68;;;24.20;48.70;;;;;;5194552;28;20030;-84
2020/12/23 01:44:43;;;;;;;2.60;0.60;;;24.20;48.80;;;;;;5178676;28;20058;-81
2020/12/23 01:47:22;;;;;;;2.80;0.70;;;24.20;48.80;;;;;;5172934;28;20030;-82
2020/12/23 01:49:52;;;;;;;0.43;0.43;;;24.30;48.70;;;;;;5175396;28;20508;-81
2020/12/23 01:52:23;;;;;;;1.55;0.68;;;24.10;49.00;;;;;;5195886;28;20034;-81
2020/12/23 01:54:54;;;;;;;1.35;0.90;;;24.20;48.70;;;;;;5180193;28;20502;-82
2020/12/23 01:57:24;;;;;;;0.50;0.45;;;24.20;48.80;;;;;;5195467;28;20030;-83
2020/12/23 01:59:55;;;;;;;2.75;0.70;;;24.30;48.70;;;;;;5176994;28;20588;-84
2020/12/23 02:02:38;;;;;;;2.00;0.80;;;24.20;48.80;;;;;;5189140;28;20108;-82
2020/12/23 02:05:08;;;;;;;1.05;0.70;;;24.10;49.20;;;;;;5176449;28;20028;-83
2020/12/23 02:07:39;;;;;;;8.60;1.08;;;24.10;49.40;;;;;;5177196;28;20042;-82
2020/12/23 02:10:09;;;;;;;3.70;0.70;;;24.20;49.10;;;;;;5156361;28;20029;-83
2020/12/23 02:12:40;;;;;;;3.13;0.80;;;24.30;49.00;;;;;;5172511;28;20038;-82
2020/12/23 02:15:11;;;;;;;5.97;0.80;;;24.40;48.90;;;;;;5184727;28;20100;-82
2020/12/23 02:17:42;;;;;;;3.38;0.80;;;24.30;49.00;;;;;;5168909;28;20088;-84
2020/12/23 02:20:13;;;;;;;1.92;0.82;;;24.30;49.10;;;;;;5189256;28;20029;-84
2020/12/23 02:22:44;;;;;;;1.08;0.73;;;24.40;49.00;;;;;;5186587;28;20030;-85
2020/12/23 02:25:15;;;;;;;4.32;0.70;;;24.30;49.00;;;;;;5153277;28;20121;-83
2020/12/23 02:27:45;;;;;;;0.95;0.75;;;24.30;49.20;;;;;;5159757;28;20109;-83
2020/12/23 02:30:16;;;;;;;1.50;0.73;;;24.30;49.20;;;;;;5185349;28;20088;-82
2020/12/23 02:32:46;;;;;;;2.05;0.70;;;24.20;49.50;;;;;;5167350;28;20073;-82
2020/12/23 02:35:17;;;;;;;1.55;0.90;;;24.10;49.50;;;;;;5154706;28;20018;-81
2020/12/23 02:37:47;;;;;;;1.50;0.73;;;24.20;49.60;;;;;;5172258;28;20038;-84
2020/12/23 02:40:18;;;;;;;2.50;0.88;;;24.20;49.60;;;;;;5170709;28;20037;-82
2020/12/23 02:42:48;;;;;;;1.13;0.80;;;24.10;49.80;;;;;;5168757;28;20065;-83
2020/12/23 02:45:19;;;;;;;1.15;0.75;;;24.10;49.90;;;;;;5185569;28;20029;-80
2020/12/23 02:47:49;;;;;;;1.67;0.88;;;24.10;49.80;;;;;;5186014;28;20057;-82
2020/12/23 02:50:20;;;;;;;2.22;0.82;;;24.20;49.50;;;;;;5170508;28;20125;-81
2020/12/23 02:52:50;;;;;;;1.60;0.90;;;24.20;49.40;;;;;;5186297;28;20029;-80
2020/12/23 02:55:21;;;;;;;1.85;0.90;;;24.30;49.30;;;;;;5186922;28;20543;-81
2020/12/23 02:57:51;;;;;;;1.67;0.90;;;24.30;49.40;;;;;;5170314;28;20034;-83
2020/12/23 03:00:22;;;;;;;1.70;0.80;;;24.20;49.40;;;;;;5186169;28;20507;-83
2020/12/23 03:02:52;;;;;;;6.70;0.90;;;24.30;49.40;;;;;;5196792;28;20102;-84
2020/12/23 03:05:23;;;;;;;1.13;0.90;;;24.30;49.60;;;;;;5170808;28;20033;-86
2020/12/23 03:07:53;;;;;;;2.17;0.90;;;24.30;49.40;;;;;;5199841;28;20564;-85
2020/12/23 03:10:24;;;;;;;2.67;0.73;;;24.30;49.50;;;;;;5213491;28;20044;-83
2020/12/23 03:12:54;;;;;;;1.55;0.80;;;24.30;49.50;;;;;;5211390;28;20052;-86
2020/12/23 03:15:25;;;;;;;0.95;0.80;;;24.30;49.50;;;;;;5191794;28;20025;-83
2020/12/23 03:17:55;;;;;;;0.80;0.60;;;24.20;49.60;;;;;;5190672;28;20080;-83
2020/12/23 03:20:26;;;;;;;1.25;0.80;;;24.30;49.60;;;;;;5189953;28;20061;-85
2020/12/23 03:22:56;;;;;;;1.63;0.80;;;24.20;49.80;;;;;;5189786;28;20157;-85
2020/12/23 03:25:27;;;;;;;1.38;0.80;;;24.30;49.60;;;;;;5189511;28;20029;-84
2020/12/23 03:27:57;;;;;;;1.92;0.70;;;24.40;49.40;;;;;;5205158;28;20045;-84
2020/12/23 03:30:28;;;;;;;2.67;0.95;;;24.30;49.40;;;;;;5183463;28;20038;-82
2020/12/23 03:32:58;;;;;;;1.05;0.70;;;24.30;49.40;;;;;;5194047;28;20037;-85
2020/12/23 03:35:29;;;;;;;0.85;0.60;;;24.40;49.40;;;;;;5208631;28;20526;-83
2020/12/23 03:37:59;;;;;;;6.82;0.80;;;24.30;49.50;;;;;;5209719;28;20064;-83
2020/12/23 03:40:30;;;;;;;12.05;1.02;;;24.40;49.70;;;;;;5209374;28;20022;-83
2020/12/23 03:43:00;;;;;;;2.20;0.60;;;24.40;50.40;;;;;;5191561;28;20504;-83
2020/12/23 03:45:31;;;;;;;1.73;0.98;;;24.30;49.90;;;;;;5192018;28;20032;-82
2020/12/23 03:48:01;;;;;;;3.30;0.75;;;24.30;50.00;;;;;;5191206;28;20496;-83
2020/12/23 03:50:32;;;;;;;0.88;0.70;;;24.40;49.80;;;;;;5191447;28;20029;-83
2020/12/23 03:53:02;;;;;;;4.25;0.70;;;24.40;49.60;;;;;;5206738;28;20038;-79
2020/12/23 03:55:33;;;;;;;1.02;0.70;;;24.40;49.90;;;;;;5191030;28;20026;-81
2020/12/23 03:58:03;;;;;;;0.93;0.60;;;24.40;49.60;;;;;;5189609;28;20400;-81
2020/12/23 04:00:34;;;;;;;2.65;0.70;;;24.40;49.80;;;;;;5202213;28;20053;-84
2020/12/23 04:03:04;;;;;;;3.72;0.70;;;24.40;49.60;;;;;;5165330;28;20030;-83
2020/12/23 04:05:35;;;;;;;0.77;0.68;;;24.40;49.60;;;;;;5184922;28;20145;-84
2020/12/23 04:08:06;;;;;;;1.08;0.70;;;24.30;49.60;;;;;;5187562;28;20059;-84
2020/12/23 04:10:36;;;;;;;0.82;0.70;;;24.40;49.50;;;;;;5206405;28;20478;-83
2020/12/23 04:13:07;;;;;;;1.80;0.95;;;24.40;49.50;;;;;;5191473;28;20116;-84
2020/12/23 04:15:37;;;;;;;1.45;0.70;;;24.30;49.80;;;;;;5194420;28;20080;-83
2020/12/23 04:18:08;;;;;;;0.60;0.50;;;24.40;49.60;;;;;;5188027;28;20399;-83
2020/12/23 04:20:41;;;;;;;1.23;0.60;;;24.30;49.60;;;;;;5192553;28;20033;-81
2020/12/23 04:23:12;;;;;;;2.00;0.60;;;24.30;49.60;;;;;;5191856;28;20040;-82
2020/12/23 04:25:43;;;;;;;1.10;0.70;;;24.30;49.50;;;;;;5189933;28;20112;-81
2020/12/23 04:28:13;;;;;;;2.45;0.70;;;24.40;49.30;;;;;;5187869;28;20183;-81
2020/12/23 04:30:47;;;;;;;0.80;0.60;;;24.40;49.70;;;;;;5200824;28;20034;-81
2020/12/23 04:33:17;;;;;;;2.38;0.50;;;24.40;49.50;;;;;;5182450;28;20030;-80
2020/12/23 04:35:48;;;;;;;0.63;0.60;;;24.40;49.70;;;;;;5186062;28;20029;-82
2020/12/23 04:38:18;;;;;;;0.82;0.60;;;24.30;49.60;;;;;;5184279;28;20073;-84
2020/12/23 04:40:49;;;;;;;0.82;0.60;;;24.40;49.50;;;;;;5169678;28;20029;-79
2020/12/23 04:43:20;;;;;;;1.10;0.52;;;24.40;49.40;;;;;;5188016;28;20049;-80
2020/12/23 04:45:51;;;;;;;0.73;0.68;;;24.40;49.50;;;;;;5182359;28;20509;-81
2020/12/23 04:48:24;;;;;;;1.95;0.60;;;24.30;49.60;;;;;;5162134;28;20033;-79
2020/12/23 04:50:55;;;;;;;1.25;0.70;;;24.40;49.50;;;;;;5172757;28;20088;-78
2020/12/23 04:53:25;;;;;;;0.60;0.52;;;24.40;49.60;;;;;;5188643;28;20124;-80
2020/12/23 04:55:56;;;;;;;1.25;0.57;;;24.40;49.40;;;;;;5188622;28;20477;-78
2020/12/23 04:58:27;;;;;;;0.80;0.70;;;24.40;49.60;;;;;;5172899;28;20034;-79
2020/12/23 05:00:57;;;;;;;0.80;0.57;;;24.30;49.50;;;;;;5187381;28;20056;-81
2020/12/23 05:03:28;;;;;;;0.93;0.60;;;24.30;49.60;;;;;;5168604;28;20036;-81
2020/12/23 05:05:58;;;;;;;2.70;0.40;;;24.30;49.80;;;;;;5186931;28;20040;-83
2020/12/23 05:08:29;;;;;;;0.73;0.52;;;24.30;49.80;;;;;;5155839;28;20773;-81
2020/12/23 05:11:06;;;;;;;2.67;0.70;;;24.30;49.80;;;;;;5168457;28;20489;-79
2020/12/23 05:13:36;;;;;;;21.00;1.10;;;24.40;49.80;;;;;;5152515;28;20070;-80
2020/12/23 05:16:09;;;;;;;7.80;0.52;;;24.40;50.10;;;;;;5152428;28;20066;-82
2020/12/23 05:18:40;;;;;;;7.65;0.70;;;24.40;50.30;;;;;;5157809;28;20022;-85
2020/12/23 05:21:17;;;;;;;9.75;0.70;;;24.40;50.10;;;;;;5174881;28;20018;-80
2020/12/23 05:23:47;;;;;;;6.68;0.70;;;24.40;49.80;;;;;;5195029;28;20388;-81
2020/12/23 05:26:18;;;;;;;6.07;0.68;;;24.40;49.80;;;;;;5173049;28;20056;-79
2020/12/23 05:28:49;;;;;;;9.95;0.77;;;24.40;49.80;;;;;;5174056;28;20026;-78
2020/12/23 05:31:20;;;;;;;3.13;0.50;;;24.50;50.10;;;;;;5180692;28;20068;-80
2020/12/23 05:33:51;;;;;;;5.57;0.95;;;24.40;50.00;;;;;;5173913;28;20093;-80
2020/12/23 05:36:21;;;;;;;5.80;1.00;;;24.50;47.90;;;;;;5188785;28;20122;-80
2020/12/23 05:38:52;;;;;;;3.25;0.93;;;24.30;46.60;;;;;;5166946;28;20049;-80
2020/12/23 05:41:22;;;;;;;5.35;1.08;;;24.10;46.00;;;;;;5162151;28;20032;-81
2020/12/23 05:43:53;;;;;;;0.77;0.70;;;24.00;45.30;;;;;;5172681;28;20033;-78
2020/12/23 05:46:24;;;;;;;3.08;1.00;;;24.00;44.90;;;;;;5177786;28;20535;-78
2020/12/23 05:48:54;;;;;;;2.30;0.80;;;24.00;44.50;;;;;;5188848;28;20030;-80
2020/12/23 05:51:25;;;;;;;1.10;1.00;;;23.80;45.20;;;;;;5171656;28;20030;-79
2020/12/23 05:53:55;;;;;;;2.15;0.90;;;23.70;44.80;;;;;;5171747;28;20033;-80
2020/12/23 05:56:27;;;;;;;2.00;0.80;;;23.70;44.50;;;;;;5172084;28;20084;-81
2020/12/23 05:58:57;;;;;;;0.90;0.90;;;23.60;44.40;;;;;;5188385;28;20041;-80
2020/12/23 06:01:30;;;;;;;0.70;0.70;;;23.50;44.70;;;;;;5170288;28;20060;-79
2020/12/23 06:04:05;;;;;;;1.08;1.00;;;23.40;44.80;;;;;;5187465;28;20056;-81
2020/12/23 06:06:35;;;;;;;0.85;0.80;;;23.40;44.30;;;;;;5167600;28;20081;-80
2020/12/23 06:09:06;;;;;;;0.98;0.90;;;23.30;44.40;;;;;;5151966;28;20485;-79
2020/12/23 06:11:47;;;;;;;1.05;0.80;;;23.30;44.20;;;;;;5167392;28;20496;-79
2020/12/23 06:14:19;;;;;;;1.00;0.90;;;23.30;44.20;;;;;;5168589;28;20097;-78
2020/12/23 06:16:59;;;;;;;1.67;1.00;;;23.20;43.70;;;;;;5168340;28;20489;-79
2020/12/23 06:19:30;;;;;;;1.33;1.13;;;23.20;44.00;;;;;;5169173;28;20041;-78
2020/12/23 06:22:00;;;;;;;1.15;1.02;;;23.10;43.80;;;;;;5176624;28;20105;-79
2020/12/23 06:24:31;;;;;;;1.20;1.10;;;23.10;43.70;;;;;;5172906;28;20028;-79
2020/12/23 06:27:06;;;;;;;1.20;1.00;;;23.10;44.00;;;;;;5147089;28;20034;-80
2020/12/23 06:29:38;;;;;;;1.20;1.10;;;23.00;43.70;;;;;;5144846;28;20047;-79
2020/12/23 06:32:22;;;;;;;0.73;0.73;;;23.00;44.10;;;;;;5170720;28;20304;-79
2020/12/23 06:34:57;;;;;;;0.88;0.82;;;23.00;43.50;;;;;;5172147;28;20499;-81
2020/12/23 06:37:32;;;;;;;0.90;0.90;;;23.00;43.60;;;;;;5187692;28;20332;-78
2020/12/23 06:40:10;;;;;;;1.10;1.00;;;23.00;43.40;;;;;;5171929;28;20018;-78
2020/12/23 06:42:47;;;;;;;1.05;0.95;;;23.00;43.50;;;;;;5187276;28;20030;-80
2020/12/23 06:45:20;;;;;;;0.70;0.70;;;22.90;43.50;;;;;;5187044;28;20022;-79
2020/12/23 06:47:50;;;;;;;2.45;1.00;;;23.00;43.90;;;;;;5181455;28;20077;-80
2020/12/23 06:50:21;;;;;;;0.80;0.80;;;23.00;43.30;;;;;;5187505;28;20057;-81
2020/12/23 06:52:51;;;;;;;0.88;0.88;;;23.00;43.70;;;;;;5186283;28;20034;-80
2020/12/23 06:55:42;;;;;;;1.27;0.85;;;23.00;43.60;;;;;;5187985;28;20065;-79
2020/12/23 06:58:42;;;;;;;0.80;0.80;;;23.00;43.40;;;;;;5173421;28;20026;-79
2020/12/23 07:01:19;;;;;;;1.02;0.93;;;23.00;43.20;;;;;;5202615;28;20069;-78
2020/12/23 07:03:50;;;;;;;1.00;0.82;;;23.00;43.50;;;;;;5170716;28;20022;-79
2020/12/23 07:06:33;;;;;;;0.90;0.90;;;23.00;43.30;;;;;;5160734;28;20545;-80
2020/12/23 07:09:04;;;;;;;1.17;1.08;;;23.00;43.10;;;;;;5204578;28;20025;-80
2020/12/23 07:11:36;;;;;;;1.10;1.00;;;23.10;42.60;;;;;;5180715;28;20035;-80
2020/12/23 07:14:13;;;;;;;1.20;1.10;;;23.00;42.80;;;;;;5191889;28;20126;-80
2020/12/23 07:16:44;;;;;;;1.20;1.10;;;23.00;42.70;;;;;;5167528;28;20026;-78
2020/12/23 07:19:15;;;;;;;0.98;0.80;;;23.00;43.50;;;;;;5172934;28;20014;-80
2020/12/23 07:21:47;;;;;;;0.90;0.90;;;22.90;43.80;;;;;;5176614;28;20037;-80
2020/12/23 07:24:18;;;;;;;0.90;0.90;;;22.90;44.40;;;;;;5211322;28;20178;-78
2020/12/23 07:26:50;;;;;;;1.00;1.00;;;23.00;44.00;;;;;;5208045;28;20037;-80
2020/12/23 07:29:21;;;;;;;1.85;0.75;;;23.00;43.70;;;;;;5196897;28;20021;-80
2020/12/23 07:31:52;;;;;;;0.93;0.93;;;23.10;44.00;;;;;;5183587;28;20089;-79
2020/12/23 07:34:22;;;;;;;1.00;1.00;;;23.10;42.70;;;;;;5189639;28;20030;-80
2020/12/23 07:36:57;;;;;;;0.73;0.73;;;23.00;42.30;;;;;;5196072;28;20060;-78
2020/12/23 07:39:30;;;;;;;0.80;0.80;;;22.80;43.50;;;;;;5197201;28;20014;-80
2020/12/23 07:42:00;;;;;;;0.80;0.80;;;23.00;42.50;;;;;;5181829;28;20049;-78
2020/12/23 07:44:31;;;;;;;0.65;0.65;;;23.10;42.80;;;;;;5230353;28;20041;-80
2020/12/23 07:47:05;;;;;;;1.17;0.80;;;23.10;42.60;;;;;;5200845;28;20049;-79
2020/12/23 07:49:35;;;;;;;0.80;0.80;;;23.10;43.00;;;;;;5179424;28;20053;-78
2020/12/23 07:52:06;;;;;;;1.33;0.70;;;23.00;42.70;;;;;;5195625;28;20045;-80
2020/12/23 07:54:36;;;;;;;1.45;1.20;;;23.10;42.90;;;;;;5167392;28;20025;-79
2020/12/23 07:57:07;;;;;;;0.90;0.90;;;23.00;41.80;;;;;;5170792;28;21593;-79
2020/12/23 07:59:37;;;;;;;1.15;1.10;;;22.90;41.20;;;;;;5168359;28;20014;-79
2020/12/23 08:02:09;;;;;;;0.80;0.80;;;22.80;42.10;;;;;;5190070;28;20045;-80
2020/12/23 08:04:39;;;;;;;2.03;1.20;;;22.80;41.80;;;;;;5189554;28;20084;-79
2020/12/23 08:07:10;;;;;;;1.30;1.10;;;22.80;42.10;;;;;;5188113;28;20439;-80
2020/12/23 08:09:40;;;;;;;0.93;0.93;;;22.80;41.40;;;;;;5184601;28;20087;-80
2020/12/23 08:12:11;;;;;;;2.15;1.00;;;22.80;40.80;;;;;;5203311;28;20046;-77
2020/12/23 08:14:41;;;;;;;1.17;1.10;;;22.70;41.20;;;;;;5184431;28;20034;-80
2020/12/23 08:17:24;;;;;;;1.23;1.13;;;22.70;41.10;;;;;;5205142;28;20056;-79
2020/12/23 08:20:14;;;;;;;1.70;1.50;;;22.60;41.30;;;;;;5176201;28;20503;-79
2020/12/23 08:22:45;;;;;;;1.48;1.38;;;22.60;41.60;;;;;;5203739;28;20026;-81
2020/12/23 08:25:16;;;;;;;1.30;1.20;;;22.50;41.80;;;;;;5183004;28;20132;-79
2020/12/23 08:27:49;;;;;;;1.60;1.50;;;22.50;42.30;;;;;;5209504;28;20371;-78
2020/12/23 08:30:21;;;;;;;2.92;1.58;;;22.40;41.80;;;;;;5210256;28;20092;-79
2020/12/23 08:33:13;;;;;;;2.35;2.10;;;22.40;42.20;;;;;;5177315;28;20036;-78
2020/12/23 08:35:44;;;;;;;6.47;3.10;;;22.10;39.00;;;;;;5191629;28;20032;-79
2020/12/23 08:38:20;;;;;;;4.70;2.53;;;21.50;40.40;;;;;;5197432;28;20060;-79
2020/12/23 08:40:52;;;;;;;6.63;2.53;;;21.20;41.40;;;;;;5193061;28;20022;-82
2020/12/23 08:43:26;;;;;;;3.58;2.45;;;20.90;42.40;;;;;;5199750;28;20089;-82
2020/12/23 08:45:58;;;;;;;4.43;2.87;;;20.60;42.10;;;;;;5200268;28;20081;-81
2020/12/23 08:48:29;;;;;;;3.88;2.97;;;20.50;42.80;;;;;;5201923;28;20094;-82
2020/12/23 08:51:01;;;;;;;30.38;6.82;;;20.30;42.70;;;;;;5194840;28;20098;-80
2020/12/23 08:53:34;;;;;;;13.05;4.80;;;20.30;46.00;;;;;;5193475;28;20030;-82
2020/12/23 08:56:20;;;;;;;11.45;4.75;;;20.30;46.20;;;;;;5182700;28;20018;-80
2020/12/23 08:59:11;;;;;;;14.00;4.55;;;20.20;46.50;;;;;;5188729;28;20018;-80
2020/12/23 09:01:43;;;;;;;7.50;4.18;;;20.20;45.80;;;;;;5195032;28;20053;-82
2020/12/23 09:04:13;;;;;;;9.80;3.80;;;20.10;45.70;;;;;;5177722;28;20021;-80
2020/12/23 09:06:44;;;;;;;6.38;4.00;;;20.00;46.50;;;;;;5195329;28;20025;-81
2020/12/23 09:09:17;;;;;;;7.03;4.18;;;19.90;47.00;;;;;;5221764;28;20033;-79
2020/12/23 09:11:48;;;;;;;6.28;3.42;;;19.80;46.20;;;;;;5217134;28;20053;-80
2020/12/23 09:14:29;;;;;;;5.25;3.47;;;19.80;47.80;;;;;;5195737;28;20030;-80
2020/12/23 09:17:04;;;;;;;8.50;4.03;;;19.90;46.50;;;;;;5174002;28;20062;-81
2020/12/23 09:19:41;;;;;;;6.03;4.10;;;19.90;46.40;;;;;;5169197;28;20052;-82
2020/12/23 09:22:36;;;;;;;4.72;4.13;;;19.90;46.80;;;;;;5202228;28;20102;-81
2020/12/23 09:25:19;;;;;;;5.30;4.68;;;19.90;45.40;;;;;;5204087;28;20018;-81
2020/12/23 09:27:57;;;;;;;6.00;4.88;;;19.90;45.50;;;;;;5205098;28;20040;-82
2020/12/23 09:30:34;;;;;;;7.57;4.93;;;19.90;45.70;;;;;;5201273;28;20036;-82
2020/12/23 09:33:06;;;;;;;7.03;5.00;;;19.90;45.20;;;;;;5203080;28;20089;-80
2020/12/23 09:35:38;;;;;;;6.22;4.55;;;19.80;45.60;;;;;;5204292;28;20017;-83
2020/12/23 09:38:11;;;;;;;6.47;4.47;;;19.80;46.30;;;;;;5212946;28;20384;-81
2020/12/23 09:40:44;;;;;;;7.60;6.55;;;19.80;47.60;;;;;;5219340;28;20028;-82
2020/12/23 09:43:18;;;;;;;7.63;6.03;;;19.80;45.40;;;;;;5206657;28;20509;-81
2020/12/23 09:45:50;;;;;;;6.32;5.72;;;19.70;44.80;;;;;;5224869;28;20075;-83
2020/12/23 09:48:22;;;;;;;8.18;5.68;;;19.90;44.80;;;;;;5194719;28;20030;-81
2020/12/23 09:50:53;;;;;;;7.40;5.78;;;19.90;46.20;;;;;;5201452;28;20357;-81
2020/12/23 09:53:25;;;;;;;8.25;5.75;;;19.90;45.50;;;;;;5213476;28;20035;-81
2020/12/23 09:55:55;;;;;;;5.68;5.13;;;19.90;45.90;;;;;;5183458;28;20022;-80
2020/12/23 09:58:27;;;;;;;7.88;5.97;;;19.90;46.20;;;;;;5221069;28;20063;-81
2020/12/23 10:00:57;;;;;;;6.93;5.10;;;19.80;45.00;;;;;;5217249;28;20045;-79
2020/12/23 10:03:28;;;;;;;5.75;4.70;;;19.80;45.60;;;;;;5206776;28;20026;-80
2020/12/23 10:05:58;;;;;;;7.38;5.47;;;19.80;45.20;;;;;;5207522;28;20033;-79
2020/12/23 10:08:29;;;;;;;6.97;6.20;;;19.80;45.90;;;;;;5198923;28;20040;-79
2020/12/23 10:10:59;;;;;;;6.85;5.88;;;19.80;45.60;;;;;;5205851;28;20029;-79
2020/12/23 10:13:30;;;;;;;6.80;6.10;;;19.80;45.00;;;;;;5181648;28;20126;-79
2020/12/23 10:16:00;;;;;;;8.05;6.82;;;19.90;44.90;;;;;;5205222;28;20033;-79
2020/12/23 10:18:31;;;;;;;9.77;6.75;;;19.80;44.80;;;;;;5170375;28;20017;-78
2020/12/23 10:21:02;;;;;;;9.85;7.47;;;19.70;45.40;;;;;;5185444;28;20026;-79
2020/12/23 10:23:32;;;;;;;9.52;7.18;;;19.70;46.10;;;;;;5190988;28;20018;-80
2020/12/23 10:26:03;;;;;;;10.52;8.15;;;19.80;45.70;;;;;;5191469;28;20079;-80
2020/12/23 10:28:33;;;;;;;10.95;8.23;;;19.80;45.30;;;;;;5194450;28;20029;-80
2020/12/23 10:31:06;;;;;;;10.32;7.82;;;19.80;44.80;;;;;;5181569;28;20484;-79
2020/12/23 10:33:37;;;;;;;11.55;8.32;;;19.80;45.00;;;;;;5201477;28;20029;-79
2020/12/23 10:36:08;;;;;;;11.25;7.60;;;20.00;45.20;;;;;;5218471;28;20075;-79
2020/12/23 10:38:40;;;;;;;11.90;8.40;;;20.10;46.20;;;;;;5188051;28;20754;-77
2020/12/23 10:41:11;;;;;;;12.05;7.90;;;20.20;45.60;;;;;;5199460;28;20037;-77
2020/12/23 10:43:41;;;;;;;31.75;11.30;;;20.10;46.50;;;;;;5202487;28;20014;-76
2020/12/23 10:46:12;;;;;;;29.98;9.60;;;20.20;48.00;;;;;;5185664;28;20033;-78
2020/12/23 10:48:42;;;;;;;23.30;9.98;;;20.10;49.10;;;;;;5202552;28;20088;-79
2020/12/23 10:51:13;;;;;;;19.55;7.38;;;20.10;49.80;;;;;;5203826;28;20535;-78
2020/12/23 10:53:43;;;;;;;18.88;7.57;;;20.40;53.00;;;;;;5200838;28;20068;-77
2020/12/23 10:56:14;;;;;;;16.00;7.65;;;21.00;50.70;;;;;;5201194;28;20523;-77
2020/12/23 10:58:44;;;;;;;20.13;9.75;;;21.40;49.30;;;;;;5201956;28;20028;-80
2020/12/23 11:01:18;;;;;;;18.33;8.70;;;21.30;47.00;;;;;;5202846;28;20400;-78
2020/12/23 11:03:49;;;;;;;24.10;10.35;;;20.90;46.70;;;;;;5203088;28;20043;-78
2020/12/23 11:06:19;;;;;;;27.80;10.80;;;20.70;46.30;;;;;;5204289;28;20021;-79
2020/12/23 11:08:50;;;;;;;22.55;10.48;;;20.40;46.80;;;;;;5204237;28;20024;-77
2020/12/23 11:11:20;;;;;;;20.27;10.75;;;20.30;47.90;;;;;;5199596;28;20049;-78
2020/12/23 11:13:51;;;;;;;20.13;11.02;;;20.20;47.10;;;;;;5203540;28;20079;-75
2020/12/23 11:16:21;;;;;;;14.38;8.27;;;20.10;47.10;;;;;;5183293;28;20034;-78
2020/12/23 11:18:52;;;;;;;14.75;8.00;;;20.20;49.40;;;;;;5199590;28;20050;-77
2020/12/23 11:21:22;;;;;;;17.25;8.80;;;20.80;48.50;;;;;;5201403;28;20025;-78
2020/12/23 11:23:53;;;;;;;16.85;8.55;;;21.10;47.10;;;;;;5186346;28;20053;-78
2020/12/23 11:26:23;;;;;;;15.73;8.35;;;21.40;46.60;;;;;;5194912;28;20033;-80
2020/12/23 11:28:54;;;;;;;17.48;9.13;;;21.60;46.10;;;;;;5203890;28;20037;-78
2020/12/23 11:31:24;;;;;;;16.33;8.63;;;21.60;45.60;;;;;;5201648;28;20510;-77
2020/12/23 11:33:55;;;;;;;13.52;7.68;;;21.80;45.70;;;;;;5198270;28;20022;-77
2020/12/23 11:36:25;;;;;;;13.95;7.68;;;21.90;45.60;;;;;;5203421;28;20064;-75
2020/12/23 11:38:56;;;;;;;10.80;7.70;;;22.00;45.30;;;;;;5187321;28;20024;-77
2020/12/23 11:41:27;;;;;;;11.93;7.38;;;22.10;45.10;;;;;;5186669;28;20045;-77
2020/12/23 11:43:57;;;;;;;18.08;7.53;;;22.10;45.30;;;;;;5204681;28;20029;-76
2020/12/23 11:46:31;;;;;;;11.77;7.28;;;22.10;45.00;;;;;;5202517;28;20391;-76
2020/12/23 11:49:01;;;;;;;12.10;6.60;;;22.20;44.30;;;;;;5187757;28;20021;-76
2020/12/23 11:51:31;;;;;;;10.77;6.70;;;22.20;44.30;;;;;;5202296;28;20510;-76
2020/12/23 11:54:02;;;;;;;10.40;6.40;;;22.20;44.50;;;;;;5187319;28;20033;-76
2020/12/23 11:56:33;;;;;;;11.55;6.63;;;22.30;44.40;;;;;;5186815;28;20021;-75
2020/12/23 11:59:05;;;;;;;11.50;5.75;;;22.30;44.10;;;;;;5203729;28;20034;-76
2020/12/23 12:01:35;;;;;;;9.13;6.63;;;22.30;43.70;;;;;;5200042;28;20033;-77
2020/12/23 12:04:06;;;;;;;9.18;5.68;;;22.00;42.50;;;;;;5211772;28;20021;-76
2020/12/23 12:06:36;;;;;;;9.07;6.53;;;22.10;43.60;;;;;;5202970;28;20048;-75
2020/12/23 12:09:07;;;;;;;7.88;5.88;;;21.90;42.90;;;;;;5203579;28;20503;-75
2020/12/23 12:11:37;;;;;;;10.20;7.05;;;22.00;43.10;;;;;;5203176;28;20033;-76
2020/12/23 12:14:08;;;;;;;9.45;5.93;;;22.10;43.00;;;;;;5183549;28;20061;-76
2020/12/23 12:16:43;;;;;;;9.82;6.10;;;22.10;43.00;;;;;;5201337;28;20515;-75
2020/12/23 12:19:14;;;;;;;9.32;5.88;;;22.20;43.10;;;;;;5185654;28;20160;-74
2020/12/23 12:21:45;;;;;;;8.07;5.63;;;22.30;43.10;;;;;;5201629;28;20112;-75
2020/12/23 12:24:15;;;;;;;7.80;5.30;;;22.30;42.80;;;;;;5186693;28;20038;-77
2020/12/23 12:26:45;;;;;;;7.82;4.78;;;22.40;42.60;;;;;;5183970;28;20058;-74
2020/12/23 12:29:16;;;;;;;6.97;4.78;;;22.30;42.90;;;;;;5186176;28;20033;-76
2020/12/23 12:31:47;;;;;;;8.73;4.68;;;22.30;42.70;;;;;;5199083;28;20120;-75
2020/12/23 12:34:18;;;;;;;6.00;4.55;;;22.20;42.40;;;;;;5198794;28;20056;-75
2020/12/23 12:36:48;;;;;;;6.68;4.35;;;22.20;42.90;;;;;;5182238;28;20108;-76
2020/12/23 12:39:18;;;;;;;7.30;4.50;;;22.20;43.00;;;;;;5186376;28;20033;-75
2020/12/23 12:41:49;;;;;;;5.45;4.13;;;22.20;42.90;;;;;;5197972;28;20033;-75
2020/12/23 12:44:21;;;;;;;5.05;4.05;;;22.10;42.80;;;;;;5184408;28;20529;-75
2020/12/23 12:46:51;;;;;;;4.13;3.70;;;22.10;43.50;;;;;;5201277;28;20443;-76
2020/12/23 12:49:22;;;;;;;5.45;3.83;;;22.10;42.90;;;;;;5182077;28;20041;-75
2020/12/23 12:51:52;;;;;;;5.05;3.97;;;22.10;43.50;;;;;;5165232;28;20034;-75
2020/12/23 12:54:23;;;;;;;4.90;3.60;;;22.10;43.50;;;;;;5159619;28;20026;-75
2020/12/23 12:56:56;;;;;;;5.13;3.78;;;22.10;43.00;;;;;;5180334;28;20038;-75
2020/12/23 12:59:26;;;;;;;5.07;3.40;;;22.10;43.60;;;;;;5185312;28;20484;-75
2020/12/23 13:01:57;;;;;;;5.78;3.20;;;22.10;43.70;;;;;;5185704;28;20096;-74
2020/12/23 13:04:28;;;;;;;4.82;3.55;;;22.00;44.60;;;;;;5164692;28;20122;-74
2020/12/23 13:06:59;;;;;;;4.72;3.15;;;22.00;43.40;;;;;;5184155;28;20137;-73
2020/12/23 13:09:29;;;;;;;5.03;3.25;;;22.10;43.20;;;;;;5186131;28;20637;-76